sensor_id;sensor_type;location;lat;lon;timestamp;pressure;altitude;pressure_sealevel;temperature;humidity
64889;BME280;51386;53.082;8.816;2023-07-31T00:00:16;100748.28;;;21.28;58.63
64889;BME280;51386;53.082;8.816;2023-07-31T00:02:43;100748.63;;;21.32;58.23
64889;BME280;51386;53.082;8.816;2023-07-31T00:05:10;100747.81;;;21.31;58.47
64889;BME280;51386;53.082;8.816;2023-07-31T00:07:39;100750.88;;;21.23;59.17
64889;BME280;51386;53.082;8.816;2023-07-31T00:10:07;100733.34;;;21.32;59.22
64889;BME280;51386;53.082;8.816;2023-07-31T00:12:34;100748.47;;;21.38;58.87
64889;BME280;51386;53.082;8.816;2023-07-31T00:15:01;100748.75;;;21.42;59.21
64889;BME280;51386;53.082;8.816;2023-07-31T00:17:29;100746.50;;;21.50;59.02
64889;BME280;51386;53.082;8.816;2023-07-31T00:19:56;100738.53;;;21.55;59.24
64889;BME280;51386;53.082;8.816;2023-07-31T00:22:24;100738.84;;;21.59;58.68
64889;BME280;51386;53.082;8.816;2023-07-31T00:24:52;100742.41;;;21.65;58.26
64889;BME280;51386;53.082;8.816;2023-07-31T00:27:19;100734.44;;;21.70;58.58
64889;BME280;51386;53.082;8.816;2023-07-31T00:29:46;100736.13;;;21.76;58.64
64889;BME280;51386;53.082;8.816;2023-07-31T00:32:13;100735.00;;;21.72;58.33
64889;BME280;51386;53.082;8.816;2023-07-31T00:34:40;100735.56;;;21.74;58.03
64889;BME280;51386;53.082;8.816;2023-07-31T00:37:07;100736.06;;;21.71;58.32
64889;BME280;51386;53.082;8.816;2023-07-31T00:39:35;100733.38;;;21.71;58.46
64889;BME280;51386;53.082;8.816;2023-07-31T00:42:05;100725.84;;;21.68;58.21
64889;BME280;51386;53.082;8.816;2023-07-31T00:44:32;100731.38;;;21.61;58.66
64889;BME280;51386;53.082;8.816;2023-07-31T00:47:00;100721.16;;;21.58;58.56
64889;BME280;51386;53.082;8.816;2023-07-31T00:49:27;100727.31;;;21.58;59.11
64889;BME280;51386;53.082;8.816;2023-07-31T00:51:54;100723.59;;;21.59;58.72
64889;BME280;51386;53.082;8.816;2023-07-31T00:54:24;100722.47;;;21.55;58.49
64889;BME280;51386;53.082;8.816;2023-07-31T00:56:54;100725.06;;;21.50;59.07
64889;BME280;51386;53.082;8.816;2023-07-31T00:59:22;100720.13;;;21.42;59.12
64889;BME280;51386;53.082;8.816;2023-07-31T01:01:50;100718.59;;;21.46;59.38
64889;BME280;51386;53.082;8.816;2023-07-31T01:04:18;100711.34;;;21.47;59.19
64889;BME280;51386;53.082;8.816;2023-07-31T01:06:56;100713.72;;;21.43;59.19
64889;BME280;51386;53.082;8.816;2023-07-31T01:09:36;100703.50;;;21.40;59.25
64889;BME280;51386;53.082;8.816;2023-07-31T01:12:09;100715.50;;;21.38;59.62
64889;BME280;51386;53.082;8.816;2023-07-31T01:14:40;100708.22;;;21.33;59.76
64889;BME280;51386;53.082;8.816;2023-07-31T01:17:07;100703.34;;;21.30;59.75
64889;BME280;51386;53.082;8.816;2023-07-31T01:19:35;100703.34;;;21.30;60.48
64889;BME280;51386;53.082;8.816;2023-07-31T01:22:27;100695.22;;;21.25;60.21
64889;BME280;51386;53.082;8.816;2023-07-31T01:25:15;100712.44;;;21.29;60.01
64889;BME280;51386;53.082;8.816;2023-07-31T01:27:53;100710.00;;;21.28;59.98
64889;BME280;51386;53.082;8.816;2023-07-31T01:30:32;100713.41;;;21.23;60.12
64889;BME280;51386;53.082;8.816;2023-07-31T01:33:03;100707.56;;;21.26;60.30
64889;BME280;51386;53.082;8.816;2023-07-31T01:35:34;100698.97;;;21.24;60.22
64889;BME280;51386;53.082;8.816;2023-07-31T01:38:02;100700.91;;;21.29;60.13
64889;BME280;51386;53.082;8.816;2023-07-31T01:40:29;100701.22;;;21.32;60.44
64889;BME280;51386;53.082;8.816;2023-07-31T01:42:57;100692.06;;;21.28;60.66
64889;BME280;51386;53.082;8.816;2023-07-31T01:45:25;100693.13;;;21.27;60.66
64889;BME280;51386;53.082;8.816;2023-07-31T01:47:52;100691.25;;;21.28;60.74
64889;BME280;51386;53.082;8.816;2023-07-31T01:50:19;100687.59;;;21.34;60.56
64889;BME280;51386;53.082;8.816;2023-07-31T01:52:46;100680.59;;;21.33;61.02
64889;BME280;51386;53.082;8.816;2023-07-31T01:55:13;100677.88;;;21.11;61.06
64889;BME280;51386;53.082;8.816;2023-07-31T01:57:40;100679.16;;;21.09;61.29
64889;BME280;51386;53.082;8.816;2023-07-31T02:00:09;100674.78;;;21.03;61.78
64889;BME280;51386;53.082;8.816;2023-07-31T02:02:37;100668.16;;;21.05;61.57
64889;BME280;51386;53.082;8.816;2023-07-31T02:05:05;100666.50;;;21.04;62.18
64889;BME280;51386;53.082;8.816;2023-07-31T02:07:32;100668.06;;;21.00;62.01
64889;BME280;51386;53.082;8.816;2023-07-31T02:09:59;100657.75;;;20.92;62.76
64889;BME280;51386;53.082;8.816;2023-07-31T02:12:26;100667.56;;;20.86;62.84
64889;BME280;51386;53.082;8.816;2023-07-31T02:14:53;100666.28;;;20.89;62.45
64889;BME280;51386;53.082;8.816;2023-07-31T02:17:21;100660.94;;;20.89;62.30
64889;BME280;51386;53.082;8.816;2023-07-31T02:19:48;100658.72;;;20.86;62.96
64889;BME280;51386;53.082;8.816;2023-07-31T02:22:15;100659.63;;;20.75;63.54
64889;BME280;51386;53.082;8.816;2023-07-31T02:24:42;100653.63;;;20.68;64.03
64889;BME280;51386;53.082;8.816;2023-07-31T02:27:09;100657.72;;;20.59;64.28
64889;BME280;51386;53.082;8.816;2023-07-31T02:29:36;100651.16;;;20.50;64.54
64889;BME280;51386;53.082;8.816;2023-07-31T02:32:04;100639.25;;;20.41;64.95
64889;BME280;51386;53.082;8.816;2023-07-31T02:34:32;100630.66;;;20.39;65.01
64889;BME280;51386;53.082;8.816;2023-07-31T02:36:59;100640.22;;;20.35;65.24
64889;BME280;51386;53.082;8.816;2023-07-31T02:39:26;100636.81;;;20.39;65.43
64889;BME280;51386;53.082;8.816;2023-07-31T02:41:53;100645.06;;;20.38;64.76
64889;BME280;51386;53.082;8.816;2023-07-31T02:44:20;100644.13;;;20.44;64.64
64889;BME280;51386;53.082;8.816;2023-07-31T02:46:47;100644.44;;;20.47;65.08
64889;BME280;51386;53.082;8.816;2023-07-31T02:49:16;100645.72;;;20.45;64.86
64889;BME280;51386;53.082;8.816;2023-07-31T02:51:44;100638.22;;;20.42;64.95
64889;BME280;51386;53.082;8.816;2023-07-31T02:54:11;100633.44;;;20.44;65.02
64889;BME280;51386;53.082;8.816;2023-07-31T02:56:38;100637.63;;;20.40;65.58
64889;BME280;51386;53.082;8.816;2023-07-31T02:59:06;100637.31;;;20.36;65.64
64889;BME280;51386;53.082;8.816;2023-07-31T03:01:33;100647.19;;;20.36;65.60
64889;BME280;51386;53.082;8.816;2023-07-31T03:04:00;100648.81;;;20.37;65.34
64889;BME280;51386;53.082;8.816;2023-07-31T03:06:27;100648.66;;;20.43;65.06
64889;BME280;51386;53.082;8.816;2023-07-31T03:08:56;100631.78;;;20.43;65.41
64889;BME280;51386;53.082;8.816;2023-07-31T03:11:23;100637.69;;;20.45;64.84
64889;BME280;51386;53.082;8.816;2023-07-31T03:13:50;100640.00;;;20.53;64.88
64889;BME280;51386;53.082;8.816;2023-07-31T03:16:17;100641.38;;;20.55;65.17
64889;BME280;51386;53.082;8.816;2023-07-31T03:18:44;100631.97;;;20.53;65.11
64889;BME280;51386;53.082;8.816;2023-07-31T03:21:11;100633.50;;;20.49;65.24
64889;BME280;51386;53.082;8.816;2023-07-31T03:23:37;100632.22;;;20.51;65.39
64889;BME280;51386;53.082;8.816;2023-07-31T03:26:07;100629.22;;;20.48;64.67
64889;BME280;51386;53.082;8.816;2023-07-31T03:28:35;100633.44;;;20.44;65.27
64889;BME280;51386;53.082;8.816;2023-07-31T03:31:02;100638.53;;;20.45;65.23
64889;BME280;51386;53.082;8.816;2023-07-31T03:33:29;100635.53;;;20.42;65.17
64889;BME280;51386;53.082;8.816;2023-07-31T03:35:56;100632.03;;;20.41;65.28
64889;BME280;51386;53.082;8.816;2023-07-31T03:38:23;100630.97;;;20.42;65.14
64889;BME280;51386;53.082;8.816;2023-07-31T03:40:50;100622.16;;;20.42;64.54
64889;BME280;51386;53.082;8.816;2023-07-31T03:43:19;100624.03;;;20.41;64.94
64889;BME280;51386;53.082;8.816;2023-07-31T03:45:46;100617.53;;;20.37;64.70
64889;BME280;51386;53.082;8.816;2023-07-31T03:48:14;100630.66;;;20.39;65.05
64889;BME280;51386;53.082;8.816;2023-07-31T03:50:41;100629.84;;;20.38;64.97
64889;BME280;51386;53.082;8.816;2023-07-31T03:53:08;100622.56;;;20.34;64.85
64889;BME280;51386;53.082;8.816;2023-07-31T03:55:35;100615.34;;;20.34;65.30
64889;BME280;51386;53.082;8.816;2023-07-31T03:58:02;100612.31;;;20.31;65.08
64889;BME280;51386;53.082;8.816;2023-07-31T04:00:30;100621.41;;;20.30;65.62
64889;BME280;51386;53.082;8.816;2023-07-31T04:02:57;100615.25;;;20.29;65.16
64889;BME280;51386;53.082;8.816;2023-07-31T04:05:24;100620.34;;;20.31;65.20
64889;BME280;51386;53.082;8.816;2023-07-31T04:07:52;100617.53;;;20.37;65.12
64889;BME280;51386;53.082;8.816;2023-07-31T04:10:18;100620.28;;;20.42;65.58
64889;BME280;51386;53.082;8.816;2023-07-31T04:12:45;100621.44;;;20.46;64.81
64889;BME280;51386;53.082;8.816;2023-07-31T04:15:13;100609.44;;;20.49;65.07
64889;BME280;51386;53.082;8.816;2023-07-31T04:17:41;100611.53;;;20.47;64.75
64889;BME280;51386;53.082;8.816;2023-07-31T04:20:10;100605.13;;;20.48;64.58
64889;BME280;51386;53.082;8.816;2023-07-31T04:22:37;100611.88;;;20.50;65.26
64889;BME280;51386;53.082;8.816;2023-07-31T04:25:05;100606.19;;;20.47;65.24
64889;BME280;51386;53.082;8.816;2023-07-31T04:27:32;100592.75;;;20.42;65.16
64889;BME280;51386;53.082;8.816;2023-07-31T04:29:59;100596.94;;;20.38;65.40
64889;BME280;51386;53.082;8.816;2023-07-31T04:32:26;100591.38;;;20.39;65.14
64889;BME280;51386;53.082;8.816;2023-07-31T04:34:55;100594.81;;;20.40;65.17
64889;BME280;51386;53.082;8.816;2023-07-31T04:37:22;100589.00;;;20.43;65.44
64889;BME280;51386;53.082;8.816;2023-07-31T04:39:49;100586.91;;;20.45;65.53
64889;BME280;51386;53.082;8.816;2023-07-31T04:42:16;100583.75;;;20.48;65.50
64889;BME280;51386;53.082;8.816;2023-07-31T04:44:43;100582.38;;;20.45;65.19
64889;BME280;51386;53.082;8.816;2023-07-31T04:47:10;100583.19;;;20.46;65.65
64889;BME280;51386;53.082;8.816;2023-07-31T04:49:37;100578.78;;;20.40;65.38
64889;BME280;51386;53.082;8.816;2023-07-31T04:52:06;100580.69;;;20.39;65.64
64889;BME280;51386;53.082;8.816;2023-07-31T04:54:33;100584.13;;;20.40;65.25
64889;BME280;51386;53.082;8.816;2023-07-31T04:57:00;100575.56;;;20.38;65.27
64889;BME280;51386;53.082;8.816;2023-07-31T04:59:27;100576.38;;;20.38;66.03
64889;BME280;51386;53.082;8.816;2023-07-31T05:01:54;100581.25;;;20.41;65.99
64889;BME280;51386;53.082;8.816;2023-07-31T05:04:21;100579.44;;;20.47;65.87
64889;BME280;51386;53.082;8.816;2023-07-31T05:06:48;100578.97;;;20.50;65.27
64889;BME280;51386;53.082;8.816;2023-07-31T05:09:16;100573.13;;;20.53;65.54
64889;BME280;51386;53.082;8.816;2023-07-31T05:11:43;100574.50;;;20.55;65.22
64889;BME280;51386;53.082;8.816;2023-07-31T05:14:10;100570.47;;;20.53;65.78
64889;BME280;51386;53.082;8.816;2023-07-31T05:16:37;100572.09;;;20.54;65.32
64889;BME280;51386;53.082;8.816;2023-07-31T05:19:05;100568.19;;;20.45;65.55
64889;BME280;51386;53.082;8.816;2023-07-31T05:21:32;100565.50;;;20.45;66.02
64889;BME280;51386;53.082;8.816;2023-07-31T05:23:59;100566.66;;;20.49;65.65
64889;BME280;51386;53.082;8.816;2023-07-31T05:26:27;100583.81;;;20.53;65.64
64889;BME280;51386;53.082;8.816;2023-07-31T05:28:54;100579.59;;;20.57;65.50
64889;BME280;51386;53.082;8.816;2023-07-31T05:31:21;100572.16;;;20.59;65.60
64889;BME280;51386;53.082;8.816;2023-07-31T05:33:49;100562.75;;;20.56;65.26
64889;BME280;51386;53.082;8.816;2023-07-31T05:36:17;100565.09;;;20.53;65.27
64889;BME280;51386;53.082;8.816;2023-07-31T05:38:44;100560.31;;;20.55;65.07
64889;BME280;51386;53.082;8.816;2023-07-31T05:41:12;100557.09;;;20.53;65.98
64889;BME280;51386;53.082;8.816;2023-07-31T05:43:40;100556.81;;;20.54;65.81
64889;BME280;51386;53.082;8.816;2023-07-31T05:46:07;100545.09;;;20.55;65.31
64889;BME280;51386;53.082;8.816;2023-07-31T05:48:36;100546.13;;;20.54;65.27
64889;BME280;51386;53.082;8.816;2023-07-31T05:51:03;100542.16;;;20.57;65.79
64889;BME280;51386;53.082;8.816;2023-07-31T05:53:30;100541.69;;;20.60;65.46
64889;BME280;51386;53.082;8.816;2023-07-31T05:55:57;100532.63;;;20.61;65.35
64889;BME280;51386;53.082;8.816;2023-07-31T05:58:24;100529.69;;;20.62;65.88
64889;BME280;51386;53.082;8.816;2023-07-31T06:00:52;100531.88;;;20.65;65.29
64889;BME280;51386;53.082;8.816;2023-07-31T06:03:19;100538.91;;;20.71;65.37
64889;BME280;51386;53.082;8.816;2023-07-31T06:05:46;100526.09;;;20.73;64.98
64889;BME280;51386;53.082;8.816;2023-07-31T06:08:13;100525.94;;;20.80;65.06
64889;BME280;51386;53.082;8.816;2023-07-31T06:10:40;100518.75;;;20.85;65.34
64889;BME280;51386;53.082;8.816;2023-07-31T06:13:07;100526.56;;;20.87;65.42
64889;BME280;51386;53.082;8.816;2023-07-31T06:15:34;100530.03;;;20.87;65.44
64889;BME280;51386;53.082;8.816;2023-07-31T06:18:03;100529.47;;;20.85;65.49
64889;BME280;51386;53.082;8.816;2023-07-31T06:20:31;100525.41;;;20.83;65.15
64889;BME280;51386;53.082;8.816;2023-07-31T06:22:58;100520.59;;;20.80;65.59
64889;BME280;51386;53.082;8.816;2023-07-31T06:25:25;100525.41;;;20.83;65.65
64889;BME280;51386;53.082;8.816;2023-07-31T06:27:52;100509.91;;;20.85;65.65
64889;BME280;51386;53.082;8.816;2023-07-31T06:30:19;100510.50;;;20.87;65.19
64889;BME280;51386;53.082;8.816;2023-07-31T06:32:46;100504.16;;;20.93;65.53
64889;BME280;51386;53.082;8.816;2023-07-31T06:35:15;100500.47;;;20.99;65.45
64889;BME280;51386;53.082;8.816;2023-07-31T06:37:42;100502.44;;;21.04;65.35
64889;BME280;51386;53.082;8.816;2023-07-31T06:40:11;100500.69;;;21.14;65.82
64889;BME280;51386;53.082;8.816;2023-07-31T06:42:38;100497.59;;;21.22;65.18
64889;BME280;51386;53.082;8.816;2023-07-31T06:45:07;100501.44;;;21.31;65.09
64889;BME280;51386;53.082;8.816;2023-07-31T06:47:34;100492.34;;;21.32;64.69
64889;BME280;51386;53.082;8.816;2023-07-31T06:50:01;100490.72;;;21.31;64.50
64889;BME280;51386;53.082;8.816;2023-07-31T06:52:30;100493.69;;;21.30;64.84
64889;BME280;51386;53.082;8.816;2023-07-31T06:55:16;100489.50;;;21.17;64.57
64889;BME280;51386;53.082;8.816;2023-07-31T06:57:47;100485.75;;;21.18;65.12
64889;BME280;51386;53.082;8.816;2023-07-31T07:00:15;100487.94;;;21.21;64.95
64889;BME280;51386;53.082;8.816;2023-07-31T07:02:42;100489.03;;;21.25;65.08
64889;BME280;51386;53.082;8.816;2023-07-31T07:05:10;100482.69;;;21.31;65.13
64889;BME280;51386;53.082;8.816;2023-07-31T07:07:38;100484.88;;;21.34;64.82
64889;BME280;51386;53.082;8.816;2023-07-31T07:10:07;100481.63;;;21.32;65.19
64889;BME280;51386;53.082;8.816;2023-07-31T07:12:34;100475.78;;;21.35;65.43
64889;BME280;51386;53.082;8.816;2023-07-31T07:15:03;100477.69;;;21.40;65.74
64889;BME280;51386;53.082;8.816;2023-07-31T07:17:31;100477.84;;;21.28;65.82
64889;BME280;51386;53.082;8.816;2023-07-31T07:19:59;100476.78;;;21.29;65.99
64889;BME280;51386;53.082;8.816;2023-07-31T07:22:27;100483.75;;;21.30;65.92
64889;BME280;51386;53.082;8.816;2023-07-31T07:24:56;100483.13;;;21.23;66.19
64889;BME280;51386;53.082;8.816;2023-07-31T07:27:23;100472.44;;;21.23;66.84
64889;BME280;51386;53.082;8.816;2023-07-31T07:29:51;100469.81;;;21.28;66.35
64889;BME280;51386;53.082;8.816;2023-07-31T07:32:20;100474.16;;;21.34;66.34
64889;BME280;51386;53.082;8.816;2023-07-31T07:34:48;100464.56;;;21.38;66.52
64889;BME280;51386;53.082;8.816;2023-07-31T07:37:15;100468.50;;;21.31;66.38
64889;BME280;51386;53.082;8.816;2023-07-31T07:39:43;100474.88;;;21.25;66.95
64889;BME280;51386;53.082;8.816;2023-07-31T07:42:11;100472.44;;;21.23;66.60
64889;BME280;51386;53.082;8.816;2023-07-31T07:44:38;100474.88;;;21.25;66.86
64889;BME280;51386;53.082;8.816;2023-07-31T07:47:05;100463.13;;;21.31;66.89
64889;BME280;51386;53.082;8.816;2023-07-31T07:49:34;100456.59;;;21.43;66.36
64889;BME280;51386;53.082;8.816;2023-07-31T07:52:02;100465.13;;;21.40;66.39
64889;BME280;51386;53.082;8.816;2023-07-31T07:54:29;100471.03;;;21.42;66.51
64889;BME280;51386;53.082;8.816;2023-07-31T07:56:57;100459.31;;;21.48;66.50
64889;BME280;51386;53.082;8.816;2023-07-31T07:59:25;100459.66;;;21.57;66.01
64889;BME280;51386;53.082;8.816;2023-07-31T08:01:52;100465.06;;;21.62;66.56
64889;BME280;51386;53.082;8.816;2023-07-31T08:04:19;100456.81;;;21.69;65.90
64889;BME280;51386;53.082;8.816;2023-07-31T08:06:46;100459.59;;;21.79;65.67
64889;BME280;51386;53.082;8.816;2023-07-31T08:09:13;100456.66;;;21.80;65.56
64889;BME280;51386;53.082;8.816;2023-07-31T08:11:40;100461.22;;;21.80;65.30
64889;BME280;51386;53.082;8.816;2023-07-31T08:14:07;100454.28;;;21.84;65.49
64889;BME280;51386;53.082;8.816;2023-07-31T08:16:35;100456.50;;;21.92;64.82
64889;BME280;51386;53.082;8.816;2023-07-31T08:19:02;100453.31;;;21.95;64.73
64889;BME280;51386;53.082;8.816;2023-07-31T08:21:29;100452.88;;;22.03;64.35
64889;BME280;51386;53.082;8.816;2023-07-31T08:23:58;100454.81;;;22.12;64.23
64889;BME280;51386;53.082;8.816;2023-07-31T08:26:25;100441.72;;;22.21;63.83
64889;BME280;51386;53.082;8.816;2023-07-31T08:28:52;100446.84;;;22.27;63.68
64889;BME280;51386;53.082;8.816;2023-07-31T08:31:19;100440.19;;;22.35;63.49
64889;BME280;51386;53.082;8.816;2023-07-31T08:33:47;100435.38;;;22.37;62.89
64889;BME280;51386;53.082;8.816;2023-07-31T08:36:14;100429.28;;;22.47;63.11
64889;BME280;51386;53.082;8.816;2023-07-31T08:38:41;100431.94;;;22.47;62.50
64889;BME280;51386;53.082;8.816;2023-07-31T08:41:08;100429.56;;;22.50;62.59
64889;BME280;51386;53.082;8.816;2023-07-31T08:43:37;100429.06;;;22.53;62.12
64889;BME280;51386;53.082;8.816;2023-07-31T08:46:05;100426.63;;;22.52;61.99
64889;BME280;51386;53.082;8.816;2023-07-31T08:48:32;100429.59;;;22.55;62.17
64889;BME280;51386;53.082;8.816;2023-07-31T08:51:01;100435.25;;;22.59;61.78
64889;BME280;51386;53.082;8.816;2023-07-31T08:53:28;100424.31;;;22.65;61.66
64889;BME280;51386;53.082;8.816;2023-07-31T08:55:58;100420.06;;;22.74;61.46
64889;BME280;51386;53.082;8.816;2023-07-31T08:58:30;100422.78;;;22.79;61.11
64889;BME280;51386;53.082;8.816;2023-07-31T09:01:00;100427.63;;;22.87;60.77
64889;BME280;51386;53.082;8.816;2023-07-31T09:03:28;100423.09;;;22.93;60.64
64889;BME280;51386;53.082;8.816;2023-07-31T09:06:04;100424.44;;;22.96;60.64
64889;BME280;51386;53.082;8.816;2023-07-31T09:08:33;100428.72;;;22.92;60.59
64889;BME280;51386;53.082;8.816;2023-07-31T09:11:02;100427.13;;;22.96;60.25
64889;BME280;51386;53.082;8.816;2023-07-31T09:13:31;100430.84;;;22.89;60.01
64889;BME280;51386;53.082;8.816;2023-07-31T09:15:59;100426.03;;;22.92;60.48
64889;BME280;51386;53.082;8.816;2023-07-31T09:18:26;100426.56;;;22.88;60.21
64889;BME280;51386;53.082;8.816;2023-07-31T09:21:05;100421.44;;;22.82;59.98
64889;BME280;51386;53.082;8.816;2023-07-31T09:23:42;100419.53;;;22.82;60.39
64889;BME280;51386;53.082;8.816;2023-07-31T09:26:10;100418.00;;;22.92;60.24
64889;BME280;51386;53.082;8.816;2023-07-31T09:28:37;100422.56;;;22.96;60.28
64889;BME280;51386;53.082;8.816;2023-07-31T09:31:04;100420.66;;;22.97;60.06
64889;BME280;51386;53.082;8.816;2023-07-31T09:33:31;100418.78;;;22.97;59.97
64889;BME280;51386;53.082;8.816;2023-07-31T09:35:59;100414.75;;;22.89;60.11
64889;BME280;51386;53.082;8.816;2023-07-31T09:38:28;100407.75;;;22.83;60.22
64889;BME280;51386;53.082;8.816;2023-07-31T09:40:59;100410.94;;;22.80;60.42
64889;BME280;51386;53.082;8.816;2023-07-31T09:43:27;100401.53;;;22.73;61.04
64889;BME280;51386;53.082;8.816;2023-07-31T09:45:56;100406.66;;;22.79;60.58
64889;BME280;51386;53.082;8.816;2023-07-31T09:48:24;100401.78;;;22.71;61.08
64889;BME280;51386;53.082;8.816;2023-07-31T09:50:54;100400.19;;;22.75;61.50
64889;BME280;51386;53.082;8.816;2023-07-31T09:53:29;100399.63;;;22.68;61.81
64889;BME280;51386;53.082;8.816;2023-07-31T09:55:58;100392.16;;;22.80;61.80
64889;BME280;51386;53.082;8.816;2023-07-31T09:58:29;100390.56;;;22.79;61.58
64889;BME280;51386;53.082;8.816;2023-07-31T10:00:58;100384.09;;;22.80;61.31
64889;BME280;51386;53.082;8.816;2023-07-31T10:03:29;100376.59;;;22.82;61.40
64889;BME280;51386;53.082;8.816;2023-07-31T10:05:57;100375.56;;;22.88;61.44
64889;BME280;51386;53.082;8.816;2023-07-31T10:08:30;100366.69;;;22.88;61.51
64889;BME280;51386;53.082;8.816;2023-07-31T10:11:00;100368.03;;;22.85;61.62
64889;BME280;51386;53.082;8.816;2023-07-31T10:13:30;100365.84;;;22.82;61.89
64889;BME280;51386;53.082;8.816;2023-07-31T10:15:59;100355.66;;;22.74;61.80
64889;BME280;51386;53.082;8.816;2023-07-31T10:18:29;100351.91;;;22.85;62.16
64889;BME280;51386;53.082;8.816;2023-07-31T10:20:57;100351.94;;;22.96;61.91
64889;BME280;51386;53.082;8.816;2023-07-31T10:23:24;100358.13;;;22.96;62.04
64889;BME280;51386;53.082;8.816;2023-07-31T10:25:57;100352.19;;;22.94;62.31
64889;BME280;51386;53.082;8.816;2023-07-31T10:28:26;100355.72;;;23.00;62.13
64889;BME280;51386;53.082;8.816;2023-07-31T10:30:55;100345.50;;;23.02;62.12
64889;BME280;51386;53.082;8.816;2023-07-31T10:33:22;100352.22;;;23.09;61.86
64889;BME280;51386;53.082;8.816;2023-07-31T10:35:50;100346.59;;;23.06;61.81
64889;BME280;51386;53.082;8.816;2023-07-31T10:38:23;100351.13;;;22.95;62.66
64889;BME280;51386;53.082;8.816;2023-07-31T10:40:50;100343.34;;;22.94;62.68
64889;BME280;51386;53.082;8.816;2023-07-31T10:43:27;100342.81;;;22.97;62.96
64889;BME280;51386;53.082;8.816;2023-07-31T10:45:55;100336.09;;;22.94;63.11
64889;BME280;51386;53.082;8.816;2023-07-31T10:48:22;100337.72;;;23.00;63.28
64889;BME280;51386;53.082;8.816;2023-07-31T10:50:54;100330.47;;;23.01;63.21
64889;BME280;51386;53.082;8.816;2023-07-31T10:53:28;100332.63;;;23.09;63.03
64889;BME280;51386;53.082;8.816;2023-07-31T10:55:58;100330.75;;;23.09;62.84
64889;BME280;51386;53.082;8.816;2023-07-31T10:58:27;100323.50;;;23.00;62.97
64889;BME280;51386;53.082;8.816;2023-07-31T11:00:56;100330.72;;;22.99;63.05
64889;BME280;51386;53.082;8.816;2023-07-31T11:03:26;100321.88;;;22.99;63.50
64889;BME280;51386;53.082;8.816;2023-07-31T11:06:01;100325.09;;;22.96;63.48
64889;BME280;51386;53.082;8.816;2023-07-31T11:08:32;100324.56;;;23.09;63.16
64889;BME280;51386;53.082;8.816;2023-07-31T11:11:09;100320.84;;;23.20;63.29
64889;BME280;51386;53.082;8.816;2023-07-31T11:13:46;100319.47;;;23.32;63.09
64889;BME280;51386;53.082;8.816;2023-07-31T11:16:17;100311.75;;;23.41;62.53
64889;BME280;51386;53.082;8.816;2023-07-31T11:18:47;100321.94;;;23.44;62.50
64889;BME280;51386;53.082;8.816;2023-07-31T11:21:17;100313.91;;;23.39;62.22
64889;BME280;51386;53.082;8.816;2023-07-31T11:23:46;100310.13;;;23.40;62.29
64889;BME280;51386;53.082;8.816;2023-07-31T11:26:14;100309.06;;;23.46;62.38
64889;BME280;51386;53.082;8.816;2023-07-31T11:28:41;100302.31;;;23.58;62.31
64889;BME280;51386;53.082;8.816;2023-07-31T11:31:11;100297.19;;;23.72;61.94
64889;BME280;51386;53.082;8.816;2023-07-31T11:33:38;100295.03;;;23.84;61.46
64889;BME280;51386;53.082;8.816;2023-07-31T11:36:05;100298.78;;;23.88;61.43
64889;BME280;51386;53.082;8.816;2023-07-31T11:38:33;100292.88;;;23.86;61.26
64889;BME280;51386;53.082;8.816;2023-07-31T11:41:03;100296.63;;;23.90;60.82
64889;BME280;51386;53.082;8.816;2023-07-31T11:43:32;100292.28;;;23.89;60.57
64889;BME280;51386;53.082;8.816;2023-07-31T11:46:01;100290.19;;;23.81;61.57
64889;BME280;51386;53.082;8.816;2023-07-31T11:48:37;100296.63;;;23.85;61.32
64889;BME280;51386;53.082;8.816;2023-07-31T11:51:06;100300.41;;;23.84;61.24
64889;BME280;51386;53.082;8.816;2023-07-31T11:53:40;100295.06;;;23.64;62.34
64889;BME280;51386;53.082;8.816;2023-07-31T11:56:11;100289.69;;;23.64;62.36
64889;BME280;51386;53.082;8.816;2023-07-31T11:58:40;100297.16;;;23.77;62.49
64889;BME280;51386;53.082;8.816;2023-07-31T12:01:08;100285.31;;;23.88;62.64
64889;BME280;51386;53.082;8.816;2023-07-31T12:03:38;100287.44;;;23.96;62.36
64889;BME280;51386;53.082;8.816;2023-07-31T12:06:05;100282.03;;;24.01;62.66
64889;BME280;51386;53.082;8.816;2023-07-31T12:08:32;100276.69;;;24.06;62.18
64889;BME280;51386;53.082;8.816;2023-07-31T12:11:04;100280.72;;;24.09;62.10
64889;BME280;51386;53.082;8.816;2023-07-31T12:13:32;100276.66;;;24.11;62.07
64889;BME280;51386;53.082;8.816;2023-07-31T12:16:02;100277.19;;;24.13;62.11
64889;BME280;51386;53.082;8.816;2023-07-31T12:18:36;100279.91;;;24.08;61.78
64889;BME280;51386;53.082;8.816;2023-07-31T12:21:07;100279.91;;;24.08;61.83
64889;BME280;51386;53.082;8.816;2023-07-31T12:23:37;100272.34;;;24.10;61.50
64889;BME280;51386;53.082;8.816;2023-07-31T12:26:08;100278.28;;;24.12;62.04
64889;BME280;51386;53.082;8.816;2023-07-31T12:28:37;100271.00;;;24.13;61.88
64889;BME280;51386;53.082;8.816;2023-07-31T12:31:05;100262.69;;;24.14;61.81
64889;BME280;51386;53.082;8.816;2023-07-31T12:33:34;100244.91;;;24.18;62.01
64889;BME280;51386;53.082;8.816;2023-07-31T12:36:07;100257.28;;;24.19;61.74
64889;BME280;51386;53.082;8.816;2023-07-31T12:38:35;100248.72;;;24.07;62.05
64889;BME280;51386;53.082;8.816;2023-07-31T12:41:02;100250.84;;;24.10;62.04
64889;BME280;51386;53.082;8.816;2023-07-31T12:43:29;100240.34;;;24.14;62.31
64889;BME280;51386;53.082;8.816;2023-07-31T12:45:56;100227.97;;;24.13;61.93
64889;BME280;51386;53.082;8.816;2023-07-31T12:48:24;100228.53;;;24.10;62.18
64889;BME280;51386;53.082;8.816;2023-07-31T12:50:51;100241.69;;;24.11;61.77
64889;BME280;51386;53.082;8.816;2023-07-31T12:53:19;100241.69;;;24.11;61.91
64889;BME280;51386;53.082;8.816;2023-07-31T12:55:46;100246.03;;;23.97;62.15